オークランド の空港の天気 - METARとTAF

オークランド国際空港 ( NZAA / AKL ) - ニュージーランド オークランド|オークランド
飛行場実況気象(Metar)
観測時間07/19 13:30 NZST (07/19 01:30 UTC)
風向・風速北西 5m/s
視程10km以上
天気現象
少しの雲 雲底高度 610m
全天の4割程度の雲 雲底高度 790m
全天の8割程度の雲 雲底高度 940m
気温16℃
湿度77%
気圧1015hPa
METARNZAA 190130Z AUTO 32009KT 290V360 9999 FEW020/// SCT026/// BKN031/// 16/12 Q1015 TEMPO 6000 SHRA FEW020TCU
過去の天気等 Google飛行場航空写真 Wunderground天気予報

過去48時間のMETAR

飛行場予報(TAF)
発表時間: 7/19 11:17 NZST (7/18 23:17 UTC)
予報対象時間: 19日12時 NZST ~ 20日12時 NZST
風向・風速北北西 3m/s
視程10km以上
天気現象弱いしゅう雨
少しの雲 雲底高度 760m
全天の8割程度の雲 雲底高度 1370m
19日12時 NZST ~ 19日15時 NZST に一時的に
視程6000m
天気現象しゅう雨
少しの塔状積雲 雲底高度 610m
19日15時 NZST ~ 19日17時 NZST に徐々に
風向・風速西 5m/s
19日15時 NZST ~ 19日21時 NZST に 確率 30% で一時的に
視程2500m
天気現象雷雨
全天の8割程度の雲 雲底高度 430m
少しの積乱雲 雲底高度 610m
TAF NZAA 182317Z 1900/2000 34005KT 9999 -SHRA FEW025 BKN045
TEMPO 1900/1903 6000 SHRA FEW020TCU
BECMG 1903/1905 27010KT
PROB30 TEMPO 1903/1909 2500 TSRA BKN014 FEW020CB